createdAt,value
2023-01-07T00:03:58.643Z,2.55
2023-01-07T00:09:03.661Z,2.46
2023-01-07T00:14:09.783Z,2.38
2023-01-07T00:19:15.606Z,2.36
2023-01-07T00:24:19.083Z,2.38
2023-01-07T00:29:21.980Z,2.44
2023-01-07T00:34:25.339Z,2.56
2023-01-07T00:39:28.135Z,2.71
2023-01-07T00:44:31.637Z,2.88
2023-01-07T00:49:34.743Z,3.00
2023-01-07T00:54:37.662Z,3.13
2023-01-07T00:59:40.597Z,3.23
2023-01-07T01:04:43.784Z,3.37
2023-01-07T01:09:46.652Z,3.49
2023-01-07T01:14:49.653Z,3.63
2023-01-07T01:19:52.557Z,3.72
2023-01-07T01:24:55.303Z,3.82
2023-01-07T01:29:59.501Z,3.91
2023-01-07T01:35:02.453Z,4.00
2023-01-07T01:40:07.333Z,4.06
2023-01-07T01:45:14.292Z,4.11
2023-01-07T01:50:50.519Z,4.15
2023-01-07T01:56:03.303Z,4.16
2023-01-07T02:01:06.437Z,4.16
2023-01-07T02:06:21.021Z,4.14
2023-01-07T02:11:57.682Z,4.10
2023-01-07T02:17:17.605Z,3.97
2023-01-07T02:22:57.345Z,3.84
2023-01-07T02:28:41.969Z,3.64
2023-01-07T02:34:09.139Z,3.44
2023-01-07T02:39:13.930Z,3.27
2023-01-07T02:44:41.657Z,3.08
2023-01-07T02:49:48.179Z,2.92
2023-01-07T02:55:19.494Z,2.82
2023-01-07T03:00:48.124Z,2.75
2023-01-07T03:06:24.671Z,2.66
2023-01-07T03:11:39.244Z,2.53
2023-01-07T03:16:54.278Z,2.40
2023-01-07T03:22:00.061Z,2.34
2023-01-07T03:27:06.382Z,2.26
2023-01-07T03:32:27.833Z,2.18
2023-01-07T03:37:32.465Z,2.08
2023-01-07T03:42:42.138Z,2.01
2023-01-07T03:47:49.605Z,1.95
2023-01-07T03:52:52.641Z,1.90
2023-01-07T03:57:57.074Z,1.84
2023-01-07T04:02:59.974Z,1.72
2023-01-07T04:08:02.950Z,1.61
2023-01-07T04:13:05.999Z,1.61
2023-01-07T04:18:08.948Z,1.52
2023-01-07T04:23:11.855Z,1.43
2023-01-07T04:28:15.377Z,1.32
2023-01-07T04:33:18.280Z,1.26
2023-01-07T04:38:21.328Z,1.23
2023-01-07T04:43:24.423Z,1.24
2023-01-07T04:48:27.413Z,1.18
2023-01-07T04:53:30.450Z,1.21
2023-01-07T04:58:33.443Z,1.32
2023-01-07T05:03:36.373Z,1.34
2023-01-07T05:08:39.130Z,1.31
2023-01-07T05:13:42.070Z,1.26
2023-01-07T05:18:45.419Z,1.23
2023-01-07T05:23:48.354Z,1.16
2023-01-07T05:28:51.279Z,1.08
2023-01-07T05:33:54.256Z,0.99
2023-01-07T05:38:57.178Z,0.90
2023-01-07T05:44:00.269Z,0.80
2023-01-07T05:49:03.339Z,0.67
2023-01-07T05:54:07.404Z,0.64
2023-01-07T05:59:10.350Z,0.67
2023-01-07T06:04:13.362Z,0.73
2023-01-07T06:09:16.275Z,0.77
2023-01-07T06:14:19.000Z,0.76
2023-01-07T06:19:23.087Z,0.70
2023-01-07T06:24:26.035Z,0.69
2023-01-07T06:29:29.946Z,0.64
2023-01-07T06:34:32.916Z,0.59
2023-01-07T06:39:35.863Z,0.57
2023-01-07T06:44:38.678Z,0.56
2023-01-07T06:49:41.584Z,0.57
2023-01-07T06:54:45.203Z,0.78
2023-01-07T06:59:49.363Z,1.02
2023-01-07T07:04:52.893Z,1.28
2023-01-07T07:09:55.859Z,1.56
2023-01-07T07:14:58.778Z,1.84
2023-01-07T07:20:01.900Z,2.14
2023-01-07T07:25:05.802Z,2.52
2023-01-07T07:30:09.439Z,2.84
2023-01-07T07:35:13.324Z,3.05
2023-01-07T07:40:16.386Z,3.47
2023-01-07T07:45:19.906Z,3.89
2023-01-07T07:50:23.399Z,4.28
2023-01-07T07:55:26.779Z,4.60
2023-01-07T08:00:29.619Z,5.07
2023-01-07T08:05:32.843Z,5.57
2023-01-07T08:10:36.094Z,5.66
2023-01-07T08:15:39.052Z,5.59
2023-01-07T08:20:42.050Z,5.93
2023-01-07T08:25:45.009Z,6.39
2023-01-07T08:30:48.566Z,6.88
2023-01-07T08:35:51.488Z,7.18
2023-01-07T08:40:54.765Z,7.83
2023-01-07T08:45:57.702Z,8.54
2023-01-07T08:51:00.410Z,8.96
2023-01-07T08:56:03.689Z,9.20
2023-01-07T09:01:08.616Z,9.27
2023-01-07T09:06:11.919Z,9.01
2023-01-07T09:11:15.410Z,8.44
2023-01-07T09:16:18.548Z,7.97
2023-01-07T09:21:21.296Z,8.03
2023-01-07T09:26:24.351Z,8.50
2023-01-07T09:31:27.228Z,9.16
2023-01-07T09:36:31.127Z,9.51
2023-01-07T09:41:58.687Z,9.45
2023-01-07T09:47:03.495Z,8.95
2023-01-07T09:52:22.690Z,8.46
2023-01-07T09:57:27.921Z,8.04
2023-01-07T10:03:16.727Z,7.72
2023-01-07T10:08:55.694Z,7.50
2023-01-07T10:14:22.659Z,7.37
2023-01-07T10:19:33.235Z,7.30
2023-01-07T10:24:43.405Z,7.23
2023-01-07T10:29:59.121Z,7.23
2023-01-07T10:35:03.816Z,7.23
2023-01-07T10:40:12.857Z,7.30
2023-01-07T10:45:43.994Z,7.38
2023-01-07T10:51:07.902Z,7.46
2023-01-07T10:56:32.547Z,7.77
2023-01-07T11:01:44.081Z,8.62
2023-01-07T11:07:07.358Z,9.02
2023-01-07T11:12:58.734Z,9.34
2023-01-07T11:18:25.595Z,9.41
2023-01-07T11:23:42.788Z,9.31
2023-01-07T11:28:56.565Z,9.19
2023-01-07T11:34:02.244Z,9.09
2023-01-07T11:39:19.682Z,9.03
2023-01-07T11:44:23.272Z,8.97
2023-01-07T11:49:29.048Z,8.98
2023-01-07T11:54:32.814Z,8.96
2023-01-07T11:59:35.817Z,8.99
2023-01-07T12:04:40.373Z,9.02
2023-01-07T12:09:46.024Z,9.03
2023-01-07T12:14:49.580Z,9.04
2023-01-07T12:20:52.474Z,9.13
2023-01-07T12:26:21.106Z,9.15
2023-01-07T12:32:09.034Z,9.21
2023-01-07T12:37:35.198Z,9.24
2023-01-07T12:42:50.985Z,9.26
2023-01-07T12:48:04.530Z,9.26
2023-01-07T12:53:31.913Z,9.26
2023-01-07T12:58:44.820Z,9.31
2023-01-07T13:04:40.098Z,9.31
2023-01-07T13:09:57.138Z,9.30
2023-01-07T13:15:08.998Z,9.34
2023-01-07T13:20:17.764Z,9.34
2023-01-07T13:25:33.833Z,9.34
2023-01-07T13:31:04.838Z,9.34
2023-01-07T13:36:14.412Z,9.36
2023-01-07T13:41:37.389Z,9.33
2023-01-07T13:46:44.733Z,9.33
2023-01-07T13:51:47.759Z,9.28
2023-01-07T13:56:51.030Z,9.25
2023-01-07T14:02:20.155Z,9.20
2023-01-07T14:07:23.935Z,9.13
2023-01-07T14:12:51.685Z,9.07
2023-01-07T14:18:38.221Z,8.94
2023-01-07T14:24:02.565Z,8.80
2023-01-07T14:29:48.507Z,8.65
2023-01-07T14:35:10.537Z,8.46
2023-01-07T14:40:26.351Z,8.24
2023-01-07T14:45:41.432Z,8.00
2023-01-07T14:51:06.210Z,7.73
2023-01-07T14:56:31.628Z,7.50
2023-01-07T15:02:15.030Z,7.24
2023-01-07T15:07:24.503Z,7.11
2023-01-07T15:12:53.624Z,7.12
2023-01-07T15:17:56.993Z,7.16
2023-01-07T15:23:44.218Z,7.27
2023-01-07T15:29:53.837Z,7.30
2023-01-07T15:34:58.086Z,7.32
2023-01-07T15:40:01.847Z,7.29
2023-01-07T15:45:05.708Z,7.33
2023-01-07T15:50:30.336Z,7.33
2023-01-07T15:55:41.360Z,7.37
2023-01-07T16:00:44.874Z,7.35
2023-01-07T16:05:48.602Z,7.34
2023-01-07T16:11:22.107Z,7.30
2023-01-07T16:16:26.238Z,7.24
2023-01-07T16:21:39.405Z,7.14
2023-01-07T16:26:57.234Z,7.04
2023-01-07T16:32:01.366Z,6.92
2023-01-07T16:37:11.282Z,6.63
2023-01-07T16:42:20.173Z,6.34
2023-01-07T16:47:33.973Z,6.12
2023-01-07T16:52:36.886Z,5.86
2023-01-07T16:57:43.007Z,5.57
2023-01-07T17:03:00.690Z,5.29
2023-01-07T17:08:18.887Z,5.19
2023-01-07T17:13:24.830Z,5.04
2023-01-07T17:18:29.476Z,4.95
2023-01-07T17:23:39.857Z,4.88
2023-01-07T17:28:55.033Z,4.79
2023-01-07T17:33:58.233Z,4.71
2023-01-07T17:39:01.378Z,4.69
2023-01-07T17:44:06.675Z,4.68
2023-01-07T17:49:11.716Z,4.68
2023-01-07T17:54:25.557Z,4.69
2023-01-07T17:59:30.432Z,4.70
2023-01-07T18:04:33.467Z,4.70
2023-01-07T18:09:37.017Z,4.65
2023-01-07T18:14:40.131Z,4.68
2023-01-07T18:19:44.067Z,4.71
2023-01-07T18:24:49.057Z,4.67
2023-01-07T18:29:52.006Z,4.67
2023-01-07T18:34:54.727Z,4.66
2023-01-07T18:40:02.211Z,4.69
2023-01-07T18:45:07.330Z,4.65
2023-01-07T18:50:10.335Z,4.62
2023-01-07T18:55:13.732Z,4.61
2023-01-07T19:00:19.831Z,4.59
2023-01-07T19:05:22.837Z,4.62
2023-01-07T19:10:26.736Z,4.62
2023-01-07T19:15:29.867Z,4.60
2023-01-07T19:20:33.074Z,4.59
2023-01-07T19:25:35.871Z,4.65
2023-01-07T19:30:38.985Z,4.62
2023-01-07T19:35:41.935Z,4.59
2023-01-07T19:40:45.852Z,4.64
2023-01-07T19:45:56.576Z,4.64
2023-01-07T19:51:02.204Z,4.66
2023-01-07T19:56:11.057Z,4.66
2023-01-07T20:01:18.082Z,4.68
2023-01-07T20:06:25.885Z,4.69
2023-01-07T20:11:28.528Z,4.68
2023-01-07T20:16:31.704Z,4.68
2023-01-07T20:21:34.472Z,4.70
2023-01-07T20:26:38.312Z,4.68
2023-01-07T20:31:41.344Z,4.68
2023-01-07T20:36:44.309Z,4.67
2023-01-07T20:41:47.144Z,4.69
2023-01-07T20:46:50.571Z,4.69
2023-01-07T20:51:54.203Z,4.72
2023-01-07T20:56:57.140Z,4.74
2023-01-07T21:02:00.986Z,4.72
2023-01-07T21:07:04.097Z,4.75
2023-01-07T21:12:07.225Z,4.75
2023-01-07T21:17:11.066Z,4.76
2023-01-07T21:22:14.016Z,4.78
2023-01-07T21:27:17.212Z,4.81
2023-01-07T21:32:20.055Z,4.82
2023-01-07T21:37:23.159Z,4.80
2023-01-07T21:42:26.065Z,4.81
2023-01-07T21:47:30.005Z,4.80
2023-01-07T21:52:35.328Z,4.78
2023-01-07T21:57:38.643Z,4.77
2023-01-07T22:02:41.514Z,4.80
2023-01-07T22:07:44.547Z,4.82
2023-01-07T22:12:47.550Z,4.82
2023-01-07T22:17:50.548Z,4.86
2023-01-07T22:22:53.712Z,4.88
2023-01-07T22:28:02.857Z,4.86
2023-01-07T22:33:05.897Z,4.86
2023-01-07T22:38:11.784Z,4.86
2023-01-07T22:43:18.298Z,4.86
2023-01-07T22:48:27.550Z,4.82
2023-01-07T22:53:30.800Z,4.80
2023-01-07T22:58:33.734Z,4.86
2023-01-07T23:03:37.238Z,4.84
2023-01-07T23:08:41.049Z,4.87
2023-01-07T23:13:43.745Z,4.83
2023-01-07T23:18:47.957Z,4.80
2023-01-07T23:23:50.962Z,4.83
2023-01-07T23:28:54.175Z,4.83
2023-01-07T23:33:57.133Z,4.85
2023-01-07T23:39:00.106Z,4.86
2023-01-07T23:44:03.140Z,4.86
2023-01-07T23:49:06.092Z,4.89
2023-01-07T23:54:09.533Z,4.88
2023-01-07T23:59:13.280Z,4.88
